Time;durP1;ratioP1;P1;durP2;ratioP2;P2;SDS_P1;SDS_P2;PMS_P1;PMS_P2;Temp;Humidity;BMP_temperature;BMP_pressure;BME280_temperature;BME280_humidity;BME280_pressure;Samples;Min_cycle;Max_cycle;Signal;HPM_P1;HPM_P2
2021/03/16 00:00:01;;;;;;;8.70;4.65;;;5.00;99.90;;;;;;4987802;28;20680;-72
2021/03/16 00:02:29;;;;;;;12.27;5.15;;;5.00;99.90;;;;;;4974801;28;20206;-72
2021/03/16 00:04:56;;;;;;;31.30;7.38;;;4.90;99.90;;;;;;4976886;28;20208;-71
2021/03/16 00:07:22;;;;;;;25.75;6.43;;;4.90;99.90;;;;;;4979937;28;20206;-72
2021/03/16 00:09:49;;;;;;;25.23;5.93;;;4.80;99.90;;;;;;4982367;28;20244;-72
2021/03/16 00:12:16;;;;;;;15.23;5.85;;;4.80;99.90;;;;;;4980918;28;20209;-70
2021/03/16 00:14:42;;;;;;;25.85;7.40;;;4.70;99.90;;;;;;4981975;28;20206;-72
2021/03/16 00:17:09;;;;;;;21.95;6.95;;;4.70;99.90;;;;;;4984512;28;20292;-71
2021/03/16 00:19:37;;;;;;;17.70;6.45;;;4.70;99.90;;;;;;4977315;28;20591;-73
2021/03/16 00:22:04;;;;;;;20.33;6.72;;;4.60;99.90;;;;;;4982610;28;20744;-70
2021/03/16 00:24:31;;;;;;;19.50;7.25;;;4.60;99.90;;;;;;4986372;28;20201;-71
2021/03/16 00:26:57;;;;;;;19.23;7.03;;;4.60;99.90;;;;;;4985223;28;20685;-71
2021/03/16 00:29:24;;;;;;;27.75;6.72;;;4.50;99.90;;;;;;4988573;28;20513;-72
2021/03/16 00:31:51;;;;;;;17.88;7.30;;;4.50;99.90;;;;;;4991012;28;20208;-71
2021/03/16 00:34:18;;;;;;;25.40;6.95;;;4.50;99.90;;;;;;4981466;28;20725;-74
2021/03/16 00:36:45;;;;;;;29.48;7.72;;;4.40;99.90;;;;;;4984672;28;20197;-71
2021/03/16 00:39:12;;;;;;;33.92;8.48;;;4.40;99.90;;;;;;4982180;28;20245;-70
2021/03/16 00:41:39;;;;;;;25.50;7.10;;;4.40;99.90;;;;;;4993309;28;20225;-74
2021/03/16 00:44:06;;;;;;;27.45;8.98;;;4.40;99.90;;;;;;4983698;28;20740;-70
2021/03/16 00:46:33;;;;;;;23.10;6.47;;;4.40;99.90;;;;;;4985944;28;20652;-72
2021/03/16 00:49:00;;;;;;;23.23;6.05;;;4.40;99.90;;;;;;4987857;28;20201;-74
2021/03/16 00:51:28;;;;;;;18.00;8.40;;;4.40;99.90;;;;;;4985197;28;20673;-72
2021/03/16 00:53:55;;;;;;;26.70;8.27;;;4.30;99.90;;;;;;4987601;28;20268;-73
2021/03/16 00:56:22;;;;;;;32.03;8.60;;;4.30;99.90;;;;;;4984531;28;20285;-73
2021/03/16 00:58:50;;;;;;;22.65;8.93;;;4.30;99.90;;;;;;4978815;28;20693;-71
2021/03/16 01:01:17;;;;;;;21.67;7.72;;;4.30;99.90;;;;;;4987671;28;20305;-72
2021/03/16 01:03:43;;;;;;;31.80;8.70;;;4.20;99.90;;;;;;4985840;28;20204;-70
2021/03/16 01:06:10;;;;;;;24.80;7.57;;;4.20;99.90;;;;;;4992940;28;20211;-72
2021/03/16 01:08:37;;;;;;;30.42;9.73;;;4.20;99.90;;;;;;4983810;28;20209;-72
2021/03/16 01:11:06;;;;;;;31.77;8.88;;;4.20;99.90;;;;;;4978473;28;20280;-71
2021/03/16 01:13:33;;;;;;;23.27;7.22;;;4.20;99.90;;;;;;4981606;28;20406;-73
2021/03/16 01:16:00;;;;;;;39.47;11.25;;;4.10;99.90;;;;;;4984737;28;20197;-70
2021/03/16 01:18:27;;;;;;;29.75;11.18;;;4.10;99.90;;;;;;4979094;28;20206;-69
2021/03/16 01:20:54;;;;;;;29.23;9.02;;;4.10;99.90;;;;;;4985127;28;20230;-71
2021/03/16 01:23:20;;;;;;;23.20;8.43;;;3.90;99.90;;;;;;4975635;28;20206;-72
2021/03/16 01:25:47;;;;;;;27.15;7.85;;;4.10;99.90;;;;;;4984022;28;20660;-72
2021/03/16 01:28:15;;;;;;;26.17;9.23;;;4.10;99.90;;;;;;4994260;28;20204;-73
2021/03/16 01:30:41;;;;;;;31.20;10.18;;;4.10;99.90;;;;;;4996369;28;20673;-72
2021/03/16 01:33:08;;;;;;;21.40;8.10;;;4.10;99.90;;;;;;4992396;28;20659;-73
2021/03/16 01:35:35;;;;;;;33.10;9.63;;;4.10;99.90;;;;;;4989936;28;20208;-73
2021/03/16 01:38:01;;;;;;;23.27;8.98;;;4.10;99.90;;;;;;4985763;28;20641;-73
2021/03/16 01:40:32;;;;;;;31.05;9.60;;;4.10;99.90;;;;;;4978195;28;20265;-74
2021/03/16 01:43:11;;;;;;;26.05;10.32;;;4.10;99.90;;;;;;4985067;28;20216;-73
2021/03/16 01:45:40;;;;;;;27.40;9.70;;;4.10;99.90;;;;;;4985864;28;20577;-73
2021/03/16 01:48:10;;;;;;;33.72;9.45;;;4.10;99.90;;;;;;4990330;28;20199;-71
2021/03/16 01:50:37;;;;;;;36.22;11.32;;;4.10;99.90;;;;;;4984204;28;20242;-74
2021/03/16 01:53:07;;;;;;;33.40;12.15;;;4.10;99.90;;;;;;4996565;28;20225;-71
2021/03/16 01:55:35;;;;;;;30.42;11.07;;;4.10;99.90;;;;;;4994136;28;20209;-73
2021/03/16 01:58:03;;;;;;;36.90;10.93;;;4.10;99.90;;;;;;4988595;28;20629;-72
2021/03/16 02:00:36;;;;;;;25.33;11.15;;;4.10;99.90;;;;;;4995955;28;20320;-73
2021/03/16 02:03:07;;;;;;;38.75;12.10;;;4.20;99.90;;;;;;4984997;28;20568;-75
2021/03/16 02:05:33;;;;;;;29.63;11.65;;;4.20;99.90;;;;;;4979194;28;20202;-73
2021/03/16 02:08:08;;;;;;;23.92;10.80;;;4.30;99.90;;;;;;4980589;28;20220;-72
2021/03/16 02:10:43;;;;;;;29.77;12.20;;;4.40;99.90;;;;;;4989158;28;20232;-73
2021/03/16 02:13:17;;;;;;;28.20;12.60;;;4.50;99.90;;;;;;4993789;28;20212;-72
2021/03/16 02:15:48;;;;;;;31.30;11.63;;;4.50;99.90;;;;;;4981015;28;20767;-73
2021/03/16 02:18:19;;;;;;;30.25;12.52;;;4.60;99.90;;;;;;4986793;28;20215;-72
2021/03/16 02:21:19;;;;;;;40.88;13.00;;;4.70;99.90;;;;;;4987715;28;20229;-74
2021/03/16 02:24:17;;;;;;;22.10;10.15;;;4.70;99.90;;;;;;4975105;28;20205;-73
2021/03/16 02:27:00;;;;;;;42.03;12.77;;;4.80;99.90;;;;;;4988833;28;20202;-75
2021/03/16 02:29:30;;;;;;;24.52;9.35;;;4.80;99.90;;;;;;4990709;28;20194;-72
2021/03/16 02:32:02;;;;;;;30.10;10.95;;;4.90;99.90;;;;;;4984699;28;20234;-72
2021/03/16 02:34:31;;;;;;;36.88;11.75;;;4.90;99.90;;;;;;4977330;28;20214;-72
2021/03/16 02:36:59;;;;;;;29.67;11.60;;;4.90;99.90;;;;;;4991990;28;20216;-69
2021/03/16 02:39:27;;;;;;;32.08;12.05;;;4.90;99.90;;;;;;4988309;28;20289;-71
2021/03/16 02:41:55;;;;;;;23.95;10.20;;;5.00;99.90;;;;;;4996128;28;20284;-71
2021/03/16 02:44:21;;;;;;;33.33;11.25;;;5.10;99.90;;;;;;4981738;28;20216;-71
2021/03/16 02:46:50;;;;;;;29.55;9.35;;;5.10;99.90;;;;;;4981470;28;20194;-73
2021/03/16 02:49:18;;;;;;;28.75;11.57;;;5.20;99.90;;;;;;4980332;28;20244;-70
2021/03/16 02:51:46;;;;;;;44.55;11.40;;;5.20;99.90;;;;;;4983731;28;20232;-75
2021/03/16 02:54:15;;;;;;;23.83;9.15;;;5.20;99.90;;;;;;4990664;28;20216;-75
2021/03/16 02:56:44;;;;;;;23.85;10.00;;;5.30;99.90;;;;;;4988863;28;20653;-75
2021/03/16 02:59:11;;;;;;;26.48;9.48;;;5.40;99.90;;;;;;4988474;28;20212;-72
2021/03/16 03:01:39;;;;;;;24.95;9.32;;;5.40;99.90;;;;;;5006276;28;20226;-73
2021/03/16 03:04:11;;;;;;;23.60;8.82;;;5.40;99.90;;;;;;4987682;28;20260;-71
2021/03/16 03:06:39;;;;;;;31.05;8.50;;;5.50;99.90;;;;;;4990215;28;20197;-71
2021/03/16 03:09:07;;;;;;;28.75;8.52;;;5.50;99.90;;;;;;4993819;28;20673;-73
2021/03/16 03:11:34;;;;;;;29.90;8.80;;;5.60;99.90;;;;;;4988048;28;20714;-74
2021/03/16 03:14:03;;;;;;;18.83;8.52;;;5.70;99.90;;;;;;4991695;28;20733;-72
2021/03/16 03:16:30;;;;;;;28.45;8.88;;;5.80;99.90;;;;;;4979261;28;20209;-72
2021/03/16 03:18:57;;;;;;;17.85;5.93;;;5.80;99.90;;;;;;4980562;28;20230;-70
2021/03/16 03:21:30;;;;;;;22.80;8.25;;;5.90;99.90;;;;;;4987154;28;20296;-70
2021/03/16 03:24:03;;;;;;;25.52;8.68;;;6.00;99.90;;;;;;4992263;28;20259;-74
2021/03/16 03:26:36;;;;;;;22.15;6.45;;;6.00;99.90;;;;;;4983643;28;20277;-71
2021/03/16 03:29:04;;;;;;;18.35;9.32;;;5.90;99.90;;;;;;4981109;28;20509;-71
2021/03/16 03:31:33;;;;;;;24.10;7.32;;;5.90;99.90;;;;;;4986136;28;20333;-71
2021/03/16 03:34:02;;;;;;;26.10;8.25;;;6.00;99.90;;;;;;4987701;28;20209;-70
2021/03/16 03:36:35;;;;;;;35.10;8.48;;;6.00;99.90;;;;;;4981692;28;20206;-73
2021/03/16 03:39:03;;;;;;;24.83;6.85;;;6.10;99.90;;;;;;4985183;28;20252;-72
2021/03/16 03:41:31;;;;;;;20.45;6.18;;;6.10;99.90;;;;;;4978279;28;20250;-73
2021/03/16 03:43:58;;;;;;;18.27;6.25;;;6.20;99.90;;;;;;4985652;28;20210;-71
2021/03/16 03:46:25;;;;;;;21.55;6.10;;;6.20;99.90;;;;;;4984472;28;20212;-73
2021/03/16 03:48:52;;;;;;;18.55;5.68;;;6.20;99.90;;;;;;4983863;28;20202;-72
2021/03/16 03:51:21;;;;;;;13.15;6.22;;;6.20;99.90;;;;;;4985841;28;20236;-74
2021/03/16 03:53:50;;;;;;;25.23;7.60;;;6.20;99.90;;;;;;4984670;28;20651;-72
2021/03/16 03:56:17;;;;;;;21.70;5.47;;;6.20;99.90;;;;;;4985278;28;20212;-72
2021/03/16 03:58:44;;;;;;;15.68;5.60;;;6.20;99.90;;;;;;4993804;28;20205;-72
2021/03/16 04:01:11;;;;;;;24.33;7.45;;;6.20;99.90;;;;;;4986208;28;20229;-70
2021/03/16 04:03:38;;;;;;;33.50;8.48;;;6.30;99.90;;;;;;4980985;28;20636;-70
2021/03/16 04:06:06;;;;;;;26.02;7.90;;;6.40;99.90;;;;;;4978532;28;20245;-73
2021/03/16 04:08:34;;;;;;;22.45;5.95;;;6.40;99.90;;;;;;4985363;28;20708;-70
2021/03/16 04:11:02;;;;;;;16.58;6.88;;;6.40;99.90;;;;;;4982886;28;20225;-73
2021/03/16 04:13:29;;;;;;;14.35;5.05;;;6.40;99.90;;;;;;4984732;28;20238;-74
2021/03/16 04:15:56;;;;;;;23.65;5.75;;;6.30;99.90;;;;;;4977956;28;20233;-73
2021/03/16 04:18:24;;;;;;;18.95;5.82;;;6.20;99.90;;;;;;4980719;28;20704;-72
2021/03/16 04:20:51;;;;;;;22.40;6.82;;;6.30;99.90;;;;;;4991098;28;20582;-71
2021/03/16 04:23:18;;;;;;;18.17;5.13;;;6.30;99.90;;;;;;4993475;28;20212;-74
2021/03/16 04:25:45;;;;;;;21.52;6.25;;;6.40;99.90;;;;;;4981261;28;20241;-73
2021/03/16 04:28:12;;;;;;;21.08;5.90;;;6.40;99.90;;;;;;4982762;28;20298;-72
2021/03/16 04:30:39;;;;;;;17.52;6.20;;;6.40;99.90;;;;;;4983578;28;20274;-71
2021/03/16 04:33:06;;;;;;;31.83;7.30;;;6.40;99.90;;;;;;4986061;28;20289;-74
2021/03/16 04:35:33;;;;;;;22.70;6.38;;;6.40;99.90;;;;;;4980445;28;20302;-71
2021/03/16 04:38:00;;;;;;;19.35;7.15;;;6.40;99.90;;;;;;4977751;28;20250;-70
2021/03/16 04:40:27;;;;;;;21.38;6.60;;;6.30;99.90;;;;;;4980525;28;20279;-77
2021/03/16 04:42:54;;;;;;;23.02;5.95;;;6.20;99.90;;;;;;4976981;28;20515;-71
2021/03/16 04:45:21;;;;;;;13.75;5.35;;;6.30;99.90;;;;;;4980547;28;20680;-72
2021/03/16 04:47:49;;;;;;;28.67;8.13;;;6.30;99.90;;;;;;4982207;28;20205;-70
2021/03/16 04:50:16;;;;;;;27.85;7.40;;;6.40;99.90;;;;;;4986899;28;20742;-72
2021/03/16 04:52:42;;;;;;;18.00;6.28;;;6.30;99.90;;;;;;4986732;28;20667;-71
2021/03/16 04:55:10;;;;;;;36.42;7.32;;;6.20;99.90;;;;;;4990631;28;20255;-70
2021/03/16 04:57:37;;;;;;;18.88;6.03;;;6.20;99.90;;;;;;4984829;28;20199;-73
2021/03/16 05:00:05;;;;;;;24.48;6.75;;;6.10;99.90;;;;;;4989113;28;20228;-72
2021/03/16 05:02:33;;;;;;;25.67;5.45;;;6.10;99.90;;;;;;4982347;28;20637;-72
2021/03/16 05:04:59;;;;;;;39.90;10.20;;;6.10;99.90;;;;;;4984411;28;20255;-72
2021/03/16 05:07:26;;;;;;;22.98;6.85;;;6.10;99.90;;;;;;4988528;28;20214;-69
2021/03/16 05:09:53;;;;;;;30.27;7.30;;;6.10;99.90;;;;;;4986702;28;20213;-73
2021/03/16 05:12:19;;;;;;;34.38;7.75;;;6.10;99.90;;;;;;4988781;28;20221;-72
2021/03/16 05:14:46;;;;;;;35.97;7.35;;;6.10;99.90;;;;;;4992751;28;20207;-73
2021/03/16 05:17:13;;;;;;;28.58;7.95;;;6.10;99.90;;;;;;4986004;28;20201;-70
2021/03/16 05:19:41;;;;;;;21.60;6.80;;;6.00;99.90;;;;;;4984908;28;20230;-72
2021/03/16 05:22:08;;;;;;;19.58;5.90;;;6.00;99.90;;;;;;4987277;28;20285;-71
2021/03/16 05:24:35;;;;;;;23.70;7.20;;;6.00;99.90;;;;;;4991185;28;20310;-70
2021/03/16 05:27:02;;;;;;;33.03;8.38;;;6.00;99.90;;;;;;4985980;28;20748;-73
2021/03/16 05:29:28;;;;;;;24.27;7.80;;;6.00;99.90;;;;;;4994396;28;20209;-73
2021/03/16 05:31:56;;;;;;;18.83;6.57;;;6.00;99.90;;;;;;4991596;28;20205;-74
2021/03/16 05:34:23;;;;;;;26.58;8.07;;;6.00;99.90;;;;;;4989220;28;20207;-75
2021/03/16 05:36:50;;;;;;;23.13;5.07;;;6.10;99.90;;;;;;4990006;28;20603;-72
2021/03/16 05:39:17;;;;;;;23.70;5.90;;;6.10;99.90;;;;;;4985458;28;20220;-72
2021/03/16 05:41:44;;;;;;;20.00;7.05;;;6.10;99.90;;;;;;4989559;28;20699;-71
2021/03/16 05:44:11;;;;;;;36.58;6.90;;;6.10;99.90;;;;;;4992885;28;20210;-73
2021/03/16 05:46:39;;;;;;;18.80;5.50;;;6.10;99.90;;;;;;4988599;28;20562;-74
2021/03/16 05:49:07;;;;;;;17.85;6.03;;;6.20;99.90;;;;;;4989758;28;20197;-72
2021/03/16 05:51:34;;;;;;;18.50;5.22;;;6.20;99.90;;;;;;4996171;28;20221;-72
2021/03/16 05:54:02;;;;;;;16.08;4.45;;;6.20;99.90;;;;;;4995398;28;20275;-71
2021/03/16 05:56:34;;;;;;;14.10;5.53;;;6.20;99.90;;;;;;4979059;28;20198;-77
2021/03/16 05:59:03;;;;;;;16.92;6.03;;;6.20;99.90;;;;;;4989960;28;20206;-69
2021/03/16 06:01:30;;;;;;;16.88;6.53;;;6.20;99.90;;;;;;4995827;28;20283;-72
2021/03/16 06:03:57;;;;;;;14.35;5.40;;;6.30;99.90;;;;;;4991340;28;20198;-72
2021/03/16 06:06:24;;;;;;;20.50;5.75;;;6.40;99.90;;;;;;4996727;28;20227;-73
2021/03/16 06:08:50;;;;;;;11.32;4.30;;;6.40;99.90;;;;;;4990984;28;20201;-73
2021/03/16 06:11:19;;;;;;;14.98;4.13;;;6.40;99.90;;;;;;4989237;28;20249;-71
2021/03/16 06:13:51;;;;;;;12.23;4.15;;;6.50;99.90;;;;;;4991641;28;20214;-72
2021/03/16 06:16:18;;;;;;;17.00;5.95;;;6.60;99.90;;;;;;4989561;28;20705;-71
2021/03/16 06:18:45;;;;;;;10.88;4.63;;;6.60;99.90;;;;;;4983206;28;20603;-68
2021/03/16 06:21:18;;;;;;;20.13;4.68;;;6.60;99.90;;;;;;4985351;28;20326;-71
2021/03/16 06:23:53;;;;;;;18.60;4.65;;;6.60;99.90;;;;;;4995055;28;20256;-73
2021/03/16 06:26:20;;;;;;;12.50;3.35;;;6.70;99.90;;;;;;4989005;28;20207;-69
2021/03/16 06:28:47;;;;;;;12.63;4.28;;;6.70;99.90;;;;;;4989079;28;20655;-75
2021/03/16 06:31:25;;;;;;;14.57;3.67;;;6.80;99.90;;;;;;4994395;28;20218;-73
2021/03/16 06:33:53;;;;;;;10.73;3.75;;;6.90;99.90;;;;;;4989044;28;20228;-74
2021/03/16 06:36:25;;;;;;;11.07;3.45;;;6.90;99.90;;;;;;4994549;28;20205;-75
2021/03/16 06:38:52;;;;;;;13.45;4.25;;;7.00;99.90;;;;;;4988132;28;20202;-74
2021/03/16 06:41:21;;;;;;;17.00;10.52;;;7.00;99.90;;;;;;4985379;28;20298;-74
2021/03/16 06:43:56;;;;;;;14.18;4.07;;;7.20;99.90;;;;;;4992041;28;20204;-74
2021/03/16 06:46:42;;;;;;;11.38;4.00;;;7.60;99.90;;;;;;4985165;28;20271;-73
2021/03/16 06:49:12;;;;;;;18.67;5.15;;;7.70;99.90;;;;;;4988347;28;20320;-75
2021/03/16 06:51:39;;;;;;;15.05;4.00;;;7.50;99.90;;;;;;4983986;28;20218;-70
2021/03/16 06:54:10;;;;;;;13.32;3.38;;;7.60;99.90;;;;;;4991525;28;20203;-73
2021/03/16 06:56:38;;;;;;;9.93;3.60;;;7.60;99.90;;;;;;4981537;28;20292;-73
2021/03/16 06:59:06;;;;;;;10.32;3.45;;;7.70;99.90;;;;;;4992850;28;20201;-71
2021/03/16 07:01:34;;;;;;;10.52;3.70;;;7.80;99.90;;;;;;4980331;28;20758;-73
2021/03/16 07:04:12;;;;;;;10.35;3.08;;;7.90;99.90;;;;;;4980697;28;20561;-74
2021/03/16 07:06:40;;;;;;;6.47;2.40;;;7.80;99.90;;;;;;4982858;28;20255;-73
2021/03/16 07:09:10;;;;;;;8.70;2.95;;;7.80;99.90;;;;;;4989557;28;20751;-74
2021/03/16 07:11:38;;;;;;;15.13;5.15;;;7.90;99.90;;;;;;4985916;28;20221;-71
2021/03/16 07:14:06;;;;;;;16.13;5.60;;;7.90;99.90;;;;;;4989240;28;20567;-75
2021/03/16 07:16:34;;;;;;;8.77;3.50;;;8.00;99.90;;;;;;4982256;28;20209;-73
2021/03/16 07:19:04;;;;;;;10.20;3.20;;;8.00;99.90;;;;;;4985919;28;20288;-76
2021/03/16 07:21:35;;;;;;;11.32;2.97;;;8.00;99.90;;;;;;4992607;28;20239;-73
2021/03/16 07:24:06;;;;;;;11.50;3.92;;;8.10;99.90;;;;;;4991839;28;20307;-74
2021/03/16 07:26:33;;;;;;;9.18;2.83;;;8.10;99.90;;;;;;4980616;28;20217;-73
2021/03/16 07:29:03;;;;;;;7.78;4.10;;;8.00;99.90;;;;;;4981866;28;20212;-74
2021/03/16 07:31:33;;;;;;;13.57;3.30;;;8.30;99.90;;;;;;4985711;28;20229;-72
2021/03/16 07:34:04;;;;;;;12.27;4.13;;;8.30;99.90;;;;;;4972744;28;20205;-74
2021/03/16 07:36:32;;;;;;;11.85;3.28;;;8.20;99.90;;;;;;4984038;28;20340;-75
2021/03/16 07:38:59;;;;;;;13.45;3.80;;;8.10;99.90;;;;;;4981387;28;20209;-73
2021/03/16 07:41:27;;;;;;;10.50;4.32;;;8.20;99.90;;;;;;4988437;28;20239;-70
2021/03/16 07:44:03;;;;;;;8.90;4.50;;;8.20;99.90;;;;;;4982235;28;20206;-72
2021/03/16 07:46:42;;;;;;;14.25;4.35;;;8.10;99.90;;;;;;4991467;28;20322;-71
2021/03/16 07:49:11;;;;;;;11.75;4.30;;;8.00;99.90;;;;;;4986370;28;20624;-71
2021/03/16 07:51:42;;;;;;;11.40;5.07;;;7.90;99.90;;;;;;4991663;28;20227;-73
2021/03/16 07:54:10;;;;;;;17.23;4.60;;;7.80;99.90;;;;;;4991968;28;20200;-72
2021/03/16 07:56:40;;;;;;;31.15;7.72;;;7.70;99.90;;;;;;4990871;28;20212;-69
2021/03/16 07:59:08;;;;;;;13.90;5.65;;;7.70;99.90;;;;;;4986055;28;20212;-71
2021/03/16 08:01:47;;;;;;;12.13;5.65;;;7.70;99.90;;;;;;4983769;28;20231;-71
2021/03/16 08:04:14;;;;;;;22.02;7.15;;;7.60;99.90;;;;;;4986683;28;20285;-73
2021/03/16 08:06:42;;;;;;;15.25;5.20;;;7.50;99.90;;;;;;4987851;28;20617;-75
2021/03/16 08:09:20;;;;;;;14.05;3.92;;;7.50;99.90;;;;;;4993221;28;20214;-71
2021/03/16 08:11:47;;;;;;;16.05;7.05;;;7.50;99.90;;;;;;4988451;28;20236;-75
2021/03/16 08:14:25;;;;;;;18.75;5.05;;;7.50;99.90;;;;;;4992930;28;20294;-74
2021/03/16 08:16:53;;;;;;;17.42;6.78;;;7.40;99.90;;;;;;4989171;28;20231;-74
2021/03/16 08:19:21;;;;;;;18.45;7.07;;;7.40;99.90;;;;;;4987872;28;20205;-72
2021/03/16 08:21:56;;;;;;;17.85;5.88;;;7.50;99.90;;;;;;4982225;28;20326;-70
2021/03/16 08:24:34;;;;;;;16.80;5.68;;;7.60;99.90;;;;;;4989390;28;20293;-73
2021/03/16 08:27:02;;;;;;;20.50;8.50;;;7.60;99.90;;;;;;4982574;28;20220;-70
2021/03/16 08:29:31;;;;;;;30.10;11.45;;;7.60;99.90;;;;;;4987999;28;20246;-72
2021/03/16 08:32:00;;;;;;;23.73;7.35;;;7.70;99.90;;;;;;4990306;28;20222;-70
2021/03/16 08:34:31;;;;;;;22.13;8.07;;;7.80;99.90;;;;;;4982286;28;20328;-71
2021/03/16 08:36:58;;;;;;;13.25;6.32;;;8.00;99.90;;;;;;4986931;28;20212;-72
2021/03/16 08:39:26;;;;;;;24.20;9.75;;;8.20;99.90;;;;;;4980219;28;20225;-69
2021/03/16 08:41:57;;;;;;;15.13;6.03;;;8.40;99.90;;;;;;4983044;28;20236;-70
2021/03/16 08:44:25;;;;;;;27.80;11.45;;;8.40;99.90;;;;;;4991981;28;20210;-71
2021/03/16 08:46:52;;;;;;;13.32;5.45;;;8.30;99.90;;;;;;4982325;28;20201;-70
2021/03/16 08:49:21;;;;;;;19.63;5.95;;;8.40;99.90;;;;;;4991532;28;20200;-70
2021/03/16 08:51:48;;;;;;;16.70;6.70;;;8.40;99.90;;;;;;4983887;28;20224;-70
2021/03/16 08:54:23;;;;;;;16.20;7.40;;;8.20;99.90;;;;;;4985278;28;20210;-72
2021/03/16 08:56:51;;;;;;;29.27;10.82;;;8.20;99.90;;;;;;4981836;28;20261;-73
2021/03/16 08:59:19;;;;;;;14.75;7.10;;;8.30;99.90;;;;;;4989131;28;20295;-72
2021/03/16 09:01:48;;;;;;;23.65;6.13;;;8.50;99.90;;;;;;4990911;28;20235;-70
2021/03/16 09:04:16;;;;;;;15.00;5.45;;;8.50;99.90;;;;;;4987688;28;20308;-72
2021/03/16 09:06:44;;;;;;;25.40;7.18;;;8.40;99.90;;;;;;4988965;28;20228;-72
2021/03/16 09:09:12;;;;;;;19.27;6.43;;;8.40;99.90;;;;;;4990180;28;20295;-72
2021/03/16 09:11:42;;;;;;;22.75;7.15;;;8.50;99.90;;;;;;4983649;28;20225;-71
2021/03/16 09:14:10;;;;;;;15.77;6.35;;;8.60;99.90;;;;;;4981894;28;20207;-71
2021/03/16 09:16:45;;;;;;;16.35;5.15;;;8.50;99.90;;;;;;4986756;28;20335;-72
2021/03/16 09:19:13;;;;;;;19.35;7.10;;;8.60;99.90;;;;;;4983837;28;20197;-70
2021/03/16 09:21:51;;;;;;;19.17;6.47;;;8.50;99.90;;;;;;4993377;28;20297;-72
2021/03/16 09:24:23;;;;;;;16.65;5.50;;;8.20;99.90;;;;;;4994234;28;20231;-71
2021/03/16 09:26:58;;;;;;;16.63;5.05;;;8.10;99.90;;;;;;4989896;28;20214;-72
2021/03/16 09:29:27;;;;;;;19.55;7.30;;;8.00;99.90;;;;;;4990517;28;20204;-72
2021/03/16 09:31:54;;;;;;;24.13;7.65;;;8.10;99.90;;;;;;4984460;28;20293;-75
2021/03/16 09:34:21;;;;;;;12.43;4.20;;;8.10;99.90;;;;;;4993916;28;20296;-72
2021/03/16 09:36:58;;;;;;;14.55;5.30;;;8.00;99.90;;;;;;4991112;28;20213;-72
2021/03/16 09:39:25;;;;;;;26.50;5.40;;;8.10;99.90;;;;;;4990731;28;20200;-72
2021/03/16 09:41:53;;;;;;;9.10;4.32;;;8.20;99.90;;;;;;4996365;28;20303;-73
2021/03/16 09:44:28;;;;;;;18.38;5.70;;;8.30;99.90;;;;;;4988860;28;20296;-75
2021/03/16 09:46:55;;;;;;;16.65;6.38;;;8.30;99.90;;;;;;4984846;28;20672;-75
2021/03/16 09:49:31;;;;;;;16.35;5.03;;;8.40;99.90;;;;;;4981011;28;20204;-76
2021/03/16 09:52:04;;;;;;;22.45;4.47;;;8.50;99.90;;;;;;4992508;28;20201;-73
2021/03/16 09:54:39;;;;;;;11.75;3.65;;;8.80;99.90;;;;;;4983440;28;20205;-73
2021/03/16 09:57:08;;;;;;;15.65;4.55;;;8.90;99.90;;;;;;4990547;28;20193;-74
2021/03/16 09:59:39;;;;;;;15.23;4.57;;;8.80;99.90;;;;;;4991061;28;20206;-77
2021/03/16 10:02:07;;;;;;;13.75;3.15;;;8.70;99.90;;;;;;4978951;28;20292;-76
2021/03/16 10:04:44;;;;;;;16.63;3.88;;;8.90;99.90;;;;;;4984216;28;20284;-74
2021/03/16 10:07:12;;;;;;;13.20;3.75;;;9.30;99.90;;;;;;4984846;28;20611;-73
2021/03/16 10:09:42;;;;;;;16.25;3.83;;;9.60;99.90;;;;;;4983408;28;20215;-73
2021/03/16 10:12:20;;;;;;;18.50;3.83;;;10.30;99.90;;;;;;4993683;28;20205;-72
2021/03/16 10:14:50;;;;;;;14.52;4.70;;;10.50;98.80;;;;;;4984333;28;20253;-71
2021/03/16 10:17:24;;;;;;;18.40;4.30;;;10.60;98.20;;;;;;4981770;28;20765;-73
2021/03/16 10:19:55;;;;;;;19.23;4.45;;;10.60;97.70;;;;;;4989036;28;20217;-71
2021/03/16 10:22:28;;;;;;;13.50;3.83;;;10.50;97.30;;;;;;4985514;28;20216;-73
2021/03/16 10:24:56;;;;;;;12.30;4.10;;;10.80;95.90;;;;;;4987065;28;20198;-71
2021/03/16 10:27:27;;;;;;;13.68;4.32;;;11.00;96.30;;;;;;4995086;28;20582;-72
2021/03/16 10:29:54;;;;;;;9.90;3.15;;;11.60;95.20;;;;;;4983096;28;20228;-75
2021/03/16 10:32:21;;;;;;;5.10;2.50;;;12.40;94.00;;;;;;4982189;28;20213;-71
2021/03/16 10:34:48;;;;;;;13.75;3.83;;;13.00;92.00;;;;;;4991508;28;20205;-75
2021/03/16 10:37:19;;;;;;;12.50;3.15;;;13.40;90.80;;;;;;4990106;28;20348;-72
2021/03/16 10:39:47;;;;;;;14.55;4.45;;;13.70;90.50;;;;;;4988973;28;20291;-74
2021/03/16 10:42:20;;;;;;;12.60;3.00;;;13.80;88.10;;;;;;4994986;28;20212;-73
2021/03/16 10:44:46;;;;;;;13.30;2.58;;;13.80;88.50;;;;;;4992045;28;20710;-71
2021/03/16 10:47:13;;;;;;;13.70;3.90;;;13.90;85.30;;;;;;4985575;28;20358;-73
2021/03/16 10:49:40;;;;;;;12.43;2.72;;;13.50;85.70;;;;;;4989228;28;20204;-74
2021/03/16 10:52:07;;;;;;;9.07;3.60;;;13.30;85.20;;;;;;4985290;28;20297;-71
2021/03/16 10:54:36;;;;;;;15.77;3.30;;;13.00;86.40;;;;;;4990927;28;20213;-72
2021/03/16 10:57:05;;;;;;;8.15;2.58;;;12.90;87.80;;;;;;4991404;28;20703;-76
2021/03/16 10:59:32;;;;;;;11.70;4.68;;;12.50;88.30;;;;;;4980125;28;20208;-71
2021/03/16 11:01:58;;;;;;;20.42;4.28;;;12.10;89.90;;;;;;4979426;28;20219;-74
2021/03/16 11:04:25;;;;;;;13.65;3.55;;;12.10;89.90;;;;;;4982420;28;20216;-72
2021/03/16 11:06:52;;;;;;;6.90;3.10;;;12.10;90.40;;;;;;4984819;28;20282;-73
2021/03/16 11:09:18;;;;;;;12.20;4.18;;;12.10;90.80;;;;;;4981250;28;20204;-73
2021/03/16 11:11:45;;;;;;;12.95;3.65;;;12.00;90.80;;;;;;4982711;28;20220;-75
2021/03/16 11:14:14;;;;;;;13.27;3.28;;;11.80;91.40;;;;;;4979162;28;20217;-72
2021/03/16 11:16:40;;;;;;;7.75;3.38;;;11.90;91.50;;;;;;4985218;28;20289;-73
2021/03/16 11:19:07;;;;;;;12.82;3.00;;;11.60;91.90;;;;;;4982923;28;20339;-76
2021/03/16 11:21:34;;;;;;;15.20;3.35;;;11.40;91.40;;;;;;4982407;28;20304;-71
2021/03/16 11:24:01;;;;;;;6.70;2.80;;;11.20;90.80;;;;;;4989665;28;20289;-74
2021/03/16 11:26:28;;;;;;;14.15;3.25;;;11.30;91.30;;;;;;4988492;28;20233;-72
2021/03/16 11:28:55;;;;;;;21.48;4.45;;;11.50;90.80;;;;;;4986166;28;20202;-71
2021/03/16 11:31:22;;;;;;;12.45;2.90;;;11.50;91.30;;;;;;4986394;28;20228;-75
2021/03/16 11:33:49;;;;;;;12.05;3.30;;;11.60;91.10;;;;;;4987996;28;20222;-73
2021/03/16 11:36:16;;;;;;;11.75;3.92;;;12.00;90.00;;;;;;4988232;28;20676;-76
2021/03/16 11:38:42;;;;;;;12.90;4.15;;;11.90;89.40;;;;;;4986854;28;20203;-72
2021/03/16 11:41:09;;;;;;;12.50;2.90;;;11.60;88.60;;;;;;4991467;28;20233;-71
2021/03/16 11:43:37;;;;;;;7.28;2.22;;;11.10;88.90;;;;;;4988372;28;20292;-73
2021/03/16 11:46:04;;;;;;;8.65;3.15;;;10.80;90.00;;;;;;4987182;28;20210;-73
2021/03/16 11:48:31;;;;;;;12.20;2.95;;;10.80;90.80;;;;;;4985724;28;20228;-75
2021/03/16 11:50:58;;;;;;;15.95;3.95;;;11.20;90.90;;;;;;4990948;28;20233;-70
2021/03/16 11:53:25;;;;;;;16.38;3.60;;;11.50;90.20;;;;;;4992036;28;20289;-73
2021/03/16 11:55:53;;;;;;;13.70;2.72;;;11.30;89.20;;;;;;4992582;28;20613;-73
2021/03/16 11:58:19;;;;;;;8.73;3.55;;;11.10;89.40;;;;;;4982255;28;20664;-75
2021/03/16 12:00:46;;;;;;;10.88;4.18;;;10.80;89.80;;;;;;4988156;28;20648;-72
2021/03/16 12:03:13;;;;;;;11.40;2.95;;;10.80;90.80;;;;;;4989201;28;20557;-74
2021/03/16 12:05:41;;;;;;;9.65;2.30;;;11.20;90.70;;;;;;4981298;28;20204;-74
2021/03/16 12:08:08;;;;;;;9.32;2.40;;;11.50;88.50;;;;;;4980120;28;20293;-75
2021/03/16 12:10:35;;;;;;;9.90;2.20;;;11.90;87.10;;;;;;4984784;28;20304;-75
2021/03/16 12:13:01;;;;;;;10.77;2.50;;;11.90;86.30;;;;;;4993214;28;20205;-72
2021/03/16 12:15:28;;;;;;;9.52;2.72;;;11.90;86.60;;;;;;4987611;28;20207;-74
2021/03/16 12:17:55;;;;;;;12.10;2.60;;;12.20;86.80;;;;;;4989812;28;20203;-77
2021/03/16 12:20:22;;;;;;;13.40;3.17;;;12.30;86.40;;;;;;4984708;28;20229;-71
2021/03/16 12:22:50;;;;;;;9.15;2.95;;;12.30;84.70;;;;;;4992970;28;20240;-74
2021/03/16 12:25:17;;;;;;;8.35;3.45;;;12.30;83.40;;;;;;4987859;28;20689;-72
2021/03/16 12:27:44;;;;;;;20.25;3.40;;;12.20;82.90;;;;;;4988961;28;20700;-75
2021/03/16 12:30:12;;;;;;;12.35;3.13;;;11.70;84.20;;;;;;4980292;28;20234;-75
2021/03/16 12:32:39;;;;;;;8.23;2.63;;;11.30;84.80;;;;;;4988402;28;20280;-72
2021/03/16 12:35:08;;;;;;;10.82;2.80;;;11.00;86.20;;;;;;4984036;28;20198;-72
2021/03/16 12:37:35;;;;;;;9.40;2.40;;;11.00;86.80;;;;;;4987126;28;20238;-75
2021/03/16 12:40:04;;;;;;;4.57;2.28;;;11.20;86.70;;;;;;4989477;28;20232;-75
2021/03/16 12:42:33;;;;;;;10.38;2.95;;;11.30;86.10;;;;;;4983663;28;20230;-76
2021/03/16 12:45:01;;;;;;;14.35;2.55;;;11.30;85.50;;;;;;4993091;28;20331;-75
2021/03/16 12:47:28;;;;;;;8.55;3.40;;;11.20;87.60;;;;;;4998551;28;20285;-74
2021/03/16 12:49:54;;;;;;;12.18;3.65;;;11.20;87.80;;;;;;4986966;28;20221;-72
2021/03/16 12:52:21;;;;;;;9.25;3.72;;;11.00;87.80;;;;;;4986729;28;20212;-74